GW0802 Weather Reports


time (UTC)temp
F
wind
direction
speed
knots
gust
knots
rain 1hr
in
rain 24hr
in
rain mn
in
humidity
%
barometer
mb
20260506034504 54 308 0.9 5.2 0.00 0.00 0.00 79 1014.1
20260506033005 55 344 1.7 4.3 0.00 0.00 0.00 78 1013.6
20260506031507 56 53 1.7 4.3 0.00 0.00 0.00 75 1013.2
20260506030007 57 91 1.7 4.3 0.00 0.00 0.00 73 1012.9
20260506024505 59 96 0.9 4.3 0.00 0.00 0.00 70 1012.2
20260506023003 62 295 0.9 3.5 0.00 0.00 0.00 67 1011.7
20260506021502 64 329 0.9 4.3 0.00 0.00 0.00 65 1011.4
20260506020004 64 231 2.6 8.7 0.00 0.00 0.00 65 1011.2
20260506014509 65 84 0.9 5.2 0.00 0.00 0.00 63 1011.1
20260506013007 65 57 0.9 5.2 0.00 0.00 0.00 62 1010.9
20260506011504 66 283 2.6 4.3 0.00 0.00 0.00 62 1010.8
20260506010007 66 198 0.9 2.6 0.00 0.00 0.00 60 1010.6
20260506004513 68 127 0.9 3.5 0.00 0.00 0.00 58 1010.5
20260506003008 69 249 2.6 6.1 0.00 0.00 0.00 57 1010.6
20260506001506 71 272 3.5 7.0 0.00 0.00 0.00 57 1010.4
20260506000016 71 233 0.9 4.3 0.00 0.00 0.00 56 1010.4
20260505234513 74 275 0.0 4.3 0.00 0.00 0.00 50 1010.2
20260505233008 75 264 2.6 7.0 0.00 0.01 0.00 46 1010.3
20260505231503 75 255 3.5 5.2 0.00 0.01 0.00 41 1010.4
20260505230003 74 285 4.3 7.0 0.00 0.01 0.00 42 1010.4
20260505224512 74 285 1.7 4.3 0.00 0.02 0.00 47 1010.4
20260505223002 73 260 0.0 5.2 0.00 0.02 0.00 42 1010.6
20260505221503 72 269 2.6 6.1 0.00 0.02 0.00 51 1010.8
20260505220013 73 286 2.6 7.8 0.00 0.02 0.00 41 1010.8
20260505214509 73 259 1.7 6.1 0.00 0.02 0.00 44 1010.9
20260505213006 73 288 2.6 5.2 0.00 0.02 0.00 44 1010.9
20260505211502 72 243 1.7 3.5 0.00 0.02 0.00 42 1011.0
20260505210006 71 248 2.6 7.0 0.00 0.02 0.00 46 1011.1
20260505204505 70 255 1.7 6.1 0.00 0.02 0.00 47 1011.2
20260505203005 69 288 3.5 5.2 0.00 0.02 0.00 53 1011.4
20260505201506 69 267 1.7 6.1 0.00 0.02 0.00 52 1011.5
20260505200010 67 257 1.7 5.2 0.00 0.02 0.00 52 1011.7
20260505194516 67 249 2.6 4.3 0.00 0.02 0.00 56 1012.1
20260505193003 66 291 0.9 5.2 0.00 0.02 0.00 56 1012.2
20260505191506 65 259 0.9 4.3 0.00 0.02 0.00 60 1012.4
20260505190022 64 253 2.6 4.3 0.00 0.02 0.00 61 1012.4
20260505184511 63 264 0.9 5.2 0.00 0.02 0.00 59 1012.5
20260505183005 62 248 1.7 5.2 0.00 0.02 0.00 63 1012.8
20260505181502 61 248 2.6 4.3 0.00 0.02 0.00 62 1012.8
20260505180005 61 195 1.7 4.3 0.00 0.02 0.00 62 1012.9
20260505174529 60 281 0.0 4.3 0.00 0.02 0.00 63 1012.9
20260505173016 59 307 3.5 5.2 0.00 0.02 0.00 65 1012.8
20260505171506 58 285 2.6 4.3 0.00 0.02 0.00 70 1012.9
20260505170005 57 266 2.6 4.3 0.00 0.02 0.00 67 1013.1
20260505164509 56 300 0.0 1.7 0.00 0.02 0.00 70 1013.1
20260505163010 53 275 0.9 2.6 0.00 0.02 0.00 73 1013.2
20260505161516 52 266 0.0 1.7 0.00 0.02 0.00 75 1013.2
20260505153008 51 254 0.0 0.0 0.00 0.02 0.00 75 1013.1
20260505151511 51 255 0.0 0.0 0.00 0.02 0.00 76 1013.0
20260505124503 47 135 0.0 0.0 0.00 0.02 0.00 83 1012.2
20260505123004 47 135 0.0 0.0 0.00 0.02 0.00 83 1012.2
20260505121505 47 135 0.0 0.9 0.00 0.02 0.00 81 1012.2
20260505120008 47 107 0.0 0.0 0.00 0.02 0.00 82 1012.2
20260505111509 47 127 0.0 0.0 0.00 0.02 0.00 83 1012.3
20260505101520 47 162 0.0 2.6 0.00 0.02 0.00 81 1012.3
20260505100004 47 81 0.0 0.0 0.00 0.02 0.00 82 1012.3
20260505094504 47 88 0.0 0.0 0.00 0.02 0.00 82 1012.3
20260505093011 47 125 0.0 0.0 0.00 0.02 0.00 82 1012.5
20260505091513 47 270 0.0 0.0 0.00 0.02 0.00 83 1012.5
20260505090037 47 287 0.0 0.0 0.00 0.02 0.00 84 1012.6
20260505084503 48 4 0.0 0.0 0.00 0.02 0.00 82 1012.6
20260505083011 48 4 0.0 0.0 0.00 0.02 0.00 82 1012.7
20260505081512 47 271 0.0 0.9 0.00 0.02 0.00 81 1012.6
20260505080029 48 236 0.0 0.0 0.00 0.02 0.00 82 1012.7
20260505074502 48 236 0.0 0.9 0.00 0.02 0.00 81 1012.8
20260505073007 48 262 0.0 6.1 0.00 0.02 0.00 79 1012.8
20260505071509 48 263 0.0 5.2 0.00 0.02 0.00 79 1012.9
20260505070003 48 274 0.9 4.3 0.00 0.02 0.00 80 1012.8
20260505064504 48 238 0.9 3.5 0.00 0.02 0.02 81 1012.9
20260505063005 48 143 0.0 0.9 0.00 0.02 0.02 81 1013.2
20260505061510 49 244 1.7 3.5 0.00 0.02 0.02 78 1013.2
20260505060014 49 295 0.0 0.9 0.00 0.02 0.02 77 1013.4
20260505054503 49 251 0.0 3.5 0.00 0.02 0.02 76 1013.1
20260505053007 50 272 0.0 4.3 0.00 0.02 0.02 75 1013.2
20260505051504 50 295 1.7 4.3 0.00 0.02 0.02 75 1013.2
20260505041503 50 6 0.0 0.0 0.00 0.02 0.02 76 1012.5
20260505040004 50 68 0.0 0.0 0.00 0.02 0.02 75 1012.5